Portada
METAR-TAF:

METAR-TAF

Aeroports :

Burgos, Espanya

latitud: 42-22N, longitud: 003-38W, altitud: 894 m

Observació

L'informe es va fer fa 18 minuts, a les 23:30 UTC
Vent 5 kt del Nord/Nord-Est, variant entre Nord i Sud/Sud-Est
Temperatura 9°C
Humitat 87%
Pressió 1014 hPa
Visibilitat 10 km o més
sense núvols per sota de 1500 mi sense presència de cumulonimbus.

METAR: LEBG 042330Z AUTO 02005KT 350V150 CAVOK 09/07 Q1014

Hora: 01:48 (23:48 UTC)

Pronòstic

L'informe es va fer fa 6 hores i 48 minuts, a les 17:00 UTC
Pronòstic vàlid del 04 a les 18 UTC al 05 a les 03 UTC
Vent 10 kt del Nord
Visibilitat 10 km o més
Núvols disperses a una alçada de 3500 ft

TAF: LEBG 041700Z 0418/0503 35010KT 9999 SCT035

Observacions i pronòstics meteorològics de més de 4000 aeroports (METAR i TAF).

Les estacions disponibles són els punts grocs i vermells al mapa.

Posi el ratolí al punt desitjat per veure el nom de l'estació.

Feu clic per veure les observacions i els pronòstics meteorològics.

Per canviar el mapa: feu clic els botons verds amb una creu de color negre per apropar; al botó verd amb un guió per allunyar la imatge; o en les fletxes verdes per a mapes adjacents.


METAR-TAF: